Time;durP1;ratioP1;P1;durP2;ratioP2;P2;SDS_P1;SDS_P2;PMS_P1;PMS_P2;Temp;Humidity;BMP_temperature;BMP_pressure;BME280_temperature;BME280_humidity;BME280_pressure;Samples;Min_cycle;Max_cycle;Signal;HPM_P1;HPM_P2
2024/03/30 00:01:47;;;;;;;1.47;1.23;;;8.00;99.90;;;;;;5034290;28;20208;-76
2024/03/30 00:04:13;;;;;;;1.33;1.20;;;8.00;99.90;;;;;;5034051;28;20491;-76
2024/03/30 00:06:39;;;;;;;2.07;1.60;;;8.00;99.90;;;;;;5034602;28;20606;-76
2024/03/30 00:09:05;;;;;;;2.38;1.63;;;7.90;99.90;;;;;;5034171;28;20228;-76
2024/03/30 00:11:33;;;;;;;2.80;1.80;;;7.90;99.90;;;;;;5034237;28;20204;-76
2024/03/30 00:13:59;;;;;;;2.40;1.70;;;7.90;99.90;;;;;;5033956;28;20307;-76
2024/03/30 00:16:25;;;;;;;2.30;2.00;;;7.90;99.90;;;;;;5029730;28;20233;-76
2024/03/30 00:18:53;;;;;;;2.25;1.95;;;7.90;99.90;;;;;;5047617;28;20764;-76
2024/03/30 00:21:20;;;;;;;4.45;1.50;;;7.80;99.90;;;;;;5053992;28;20620;-76
2024/03/30 00:23:46;;;;;;;2.63;1.63;;;7.80;99.90;;;;;;5053807;28;20239;-76
2024/03/30 00:26:13;;;;;;;2.63;1.77;;;7.80;99.90;;;;;;5053773;28;20204;-76
2024/03/30 00:28:39;;;;;;;5.90;2.28;;;7.80;99.90;;;;;;5053809;28;20638;-76
2024/03/30 00:31:05;;;;;;;4.10;2.10;;;7.80;99.90;;;;;;5054045;28;20294;-76
2024/03/30 00:33:31;;;;;;;2.03;1.70;;;7.80;99.90;;;;;;5058063;28;20243;-76
2024/03/30 00:36:00;;;;;;;1.63;1.43;;;7.80;99.90;;;;;;5057948;28;20205;-76
2024/03/30 00:38:25;;;;;;;2.17;1.80;;;7.90;99.90;;;;;;5056947;28;20573;-76
2024/03/30 00:40:52;;;;;;;2.80;1.97;;;8.00;99.90;;;;;;5056723;28;20243;-75
2024/03/30 00:43:19;;;;;;;3.08;2.10;;;8.00;99.90;;;;;;5056731;28;20228;-76
2024/03/30 00:45:45;;;;;;;3.92;1.50;;;8.00;99.90;;;;;;5056905;28;20275;-76
2024/03/30 00:48:12;;;;;;;5.88;1.80;;;8.00;99.90;;;;;;5054866;28;20217;-75
2024/03/30 00:50:39;;;;;;;3.60;1.60;;;8.00;99.90;;;;;;5053122;28;20212;-76
2024/03/30 00:53:06;;;;;;;3.45;1.90;;;8.00;99.90;;;;;;5052923;28;20271;-76
2024/03/30 00:55:33;;;;;;;5.68;2.75;;;8.00;99.90;;;;;;5053156;28;20700;-76
2024/03/30 00:57:59;;;;;;;7.50;2.25;;;8.00;99.90;;;;;;5053158;28;20209;-77
2024/03/30 01:00:27;;;;;;;2.57;2.30;;;7.90;99.90;;;;;;5053002;28;20207;-76
2024/03/30 01:02:53;;;;;;;5.97;1.85;;;7.90;99.90;;;;;;5055348;28;20268;-76
2024/03/30 01:05:19;;;;;;;7.43;2.17;;;7.80;99.90;;;;;;5055878;28;20232;-77
2024/03/30 01:07:45;;;;;;;2.30;1.73;;;7.80;99.90;;;;;;5055786;28;20205;-76
2024/03/30 01:10:13;;;;;;;4.73;2.30;;;7.70;99.90;;;;;;5053885;28;20211;-76
2024/03/30 01:12:40;;;;;;;3.72;2.30;;;7.60;99.90;;;;;;5053073;28;20493;-76
2024/03/30 01:15:09;;;;;;;4.40;1.67;;;7.60;99.90;;;;;;5052956;28;20635;-76
2024/03/30 01:17:35;;;;;;;4.60;1.48;;;7.60;99.90;;;;;;5052812;28;20781;-76
2024/03/30 01:20:05;;;;;;;2.33;1.50;;;7.60;99.90;;;;;;5052689;28;20224;-76
2024/03/30 01:22:31;;;;;;;4.43;2.13;;;7.60;99.90;;;;;;5052413;28;20228;-76
2024/03/30 01:24:58;;;;;;;1.67;1.42;;;7.50;99.90;;;;;;5052361;28;20205;-76
2024/03/30 01:27:27;;;;;;;1.90;1.23;;;7.50;99.90;;;;;;5052508;28;20216;-76
2024/03/30 01:29:56;;;;;;;1.95;1.25;;;7.50;99.90;;;;;;5052462;28;20294;-75
2024/03/30 01:32:22;;;;;;;6.47;2.38;;;7.50;99.90;;;;;;5052192;28;20617;-75
2024/03/30 01:34:49;;;;;;;2.78;2.03;;;7.50;99.90;;;;;;5052362;28;20227;-75
2024/03/30 01:37:15;;;;;;;2.25;1.50;;;7.60;99.90;;;;;;5052394;28;20223;-76
2024/03/30 01:39:41;;;;;;;2.93;1.63;;;7.60;99.90;;;;;;5052698;28;20230;-76
2024/03/30 01:42:07;;;;;;;5.10;2.08;;;7.50;99.90;;;;;;5052068;28;20230;-76
2024/03/30 01:44:35;;;;;;;7.07;1.80;;;7.50;99.90;;;;;;5051738;28;20211;-75
2024/03/30 01:47:01;;;;;;;3.85;1.92;;;7.50;99.90;;;;;;5052247;28;20212;-76
2024/03/30 01:49:29;;;;;;;7.00;2.22;;;7.40;99.90;;;;;;5051333;28;20199;-76
2024/03/30 01:51:54;;;;;;;5.43;2.25;;;7.40;99.90;;;;;;5052032;28;20242;-76
2024/03/30 01:54:22;;;;;;;7.20;2.10;;;7.40;99.90;;;;;;5052923;28;20226;-76
2024/03/30 01:56:50;;;;;;;2.47;1.70;;;7.40;99.90;;;;;;5052417;28;20303;-76
2024/03/30 01:59:17;;;;;;;8.30;2.70;;;7.30;99.90;;;;;;5052098;28;20238;-75
2024/03/30 02:01:47;;;;;;;2.92;2.65;;;7.30;99.90;;;;;;5051524;28;20207;-75
2024/03/30 02:04:14;;;;;;;7.00;2.35;;;7.30;99.90;;;;;;5051621;28;20315;-76
2024/03/30 02:06:41;;;;;;;3.15;2.10;;;7.30;99.90;;;;;;5051983;28;20283;-76
2024/03/30 02:09:10;;;;;;;3.00;1.70;;;7.30;99.90;;;;;;5051815;28;20600;-76
2024/03/30 02:11:36;;;;;;;5.47;2.28;;;7.20;99.90;;;;;;5051495;28;20235;-75
2024/03/30 02:14:03;;;;;;;3.72;1.80;;;7.20;99.90;;;;;;5051592;28;20234;-76
2024/03/30 02:16:29;;;;;;;1.85;1.25;;;7.20;99.90;;;;;;5051657;28;20208;-76
2024/03/30 02:18:57;;;;;;;2.88;1.67;;;7.20;99.90;;;;;;5051526;28;20231;-76
2024/03/30 02:21:23;;;;;;;2.97;1.30;;;7.20;99.90;;;;;;5051609;28;20207;-76
2024/03/30 02:23:51;;;;;;;3.77;1.90;;;7.20;99.90;;;;;;5051644;28;20230;-76
2024/03/30 02:26:20;;;;;;;2.78;1.92;;;7.20;99.90;;;;;;5051594;28;20211;-76
2024/03/30 02:28:48;;;;;;;3.67;2.35;;;7.20;99.90;;;;;;5051574;28;20202;-76
2024/03/30 02:31:14;;;;;;;17.38;2.45;;;7.10;99.90;;;;;;5051338;28;20217;-76
2024/03/30 02:33:41;;;;;;;11.47;2.40;;;7.20;99.90;;;;;;5050979;28;20226;-76
2024/03/30 02:36:07;;;;;;;8.57;2.75;;;7.20;99.90;;;;;;5051408;28;20461;-75
2024/03/30 02:38:34;;;;;;;11.10;2.30;;;7.20;99.90;;;;;;5051351;28;20234;-76
2024/03/30 02:41:01;;;;;;;12.98;3.17;;;7.20;99.90;;;;;;5051201;28;20485;-76
2024/03/30 02:43:28;;;;;;;4.15;2.60;;;7.30;99.90;;;;;;5050870;28;20223;-76
2024/03/30 02:45:54;;;;;;;12.80;4.35;;;7.30;99.90;;;;;;5051312;28;20203;-76
2024/03/30 02:48:20;;;;;;;6.00;2.33;;;7.30;99.90;;;;;;5051077;28;20214;-76
2024/03/30 02:50:46;;;;;;;5.53;2.50;;;7.30;99.90;;;;;;5051177;28;20238;-76
2024/03/30 02:53:13;;;;;;;8.83;2.40;;;7.30;99.90;;;;;;5050898;28;20252;-76
2024/03/30 02:55:39;;;;;;;6.03;2.47;;;7.40;99.90;;;;;;5051116;28;20864;-76
2024/03/30 02:58:07;;;;;;;12.07;2.90;;;7.50;99.90;;;;;;5051107;28;20202;-76
2024/03/30 03:00:32;;;;;;;14.25;2.78;;;7.60;99.90;;;;;;5050491;28;20231;-76
2024/03/30 03:02:59;;;;;;;10.17;3.30;;;7.70;99.90;;;;;;5050860;28;20231;-76
2024/03/30 03:05:25;;;;;;;8.77;2.60;;;7.90;99.90;;;;;;5050994;28;20212;-76
2024/03/30 03:07:51;;;;;;;16.23;3.63;;;8.00;99.90;;;;;;5051205;28;20204;-76
2024/03/30 03:10:17;;;;;;;8.55;2.97;;;8.10;99.90;;;;;;5051204;28;20204;-75
2024/03/30 03:12:44;;;;;;;6.13;2.70;;;8.20;99.90;;;;;;5050363;28;20235;-76
2024/03/30 03:15:11;;;;;;;7.25;2.50;;;8.30;99.90;;;;;;5051028;28;20234;-76
2024/03/30 03:17:38;;;;;;;12.55;3.38;;;8.40;99.90;;;;;;5050845;28;20219;-76
2024/03/30 03:20:05;;;;;;;7.25;2.85;;;8.40;99.90;;;;;;5050911;28;20227;-76
2024/03/30 03:22:33;;;;;;;11.38;2.65;;;8.50;99.90;;;;;;5050984;28;20284;-76
2024/03/30 03:24:58;;;;;;;8.73;2.80;;;8.40;99.90;;;;;;5051606;28;20243;-76
2024/03/30 03:27:25;;;;;;;13.60;3.17;;;8.40;99.90;;;;;;5051645;28;20239;-76
2024/03/30 03:29:51;;;;;;;14.93;3.13;;;8.40;99.90;;;;;;5051648;28;20201;-76
2024/03/30 03:32:19;;;;;;;9.77;2.47;;;8.30;99.90;;;;;;5051187;28;20229;-76
2024/03/30 03:34:44;;;;;;;7.30;2.75;;;8.30;99.90;;;;;;5050738;28;20220;-76
2024/03/30 03:37:11;;;;;;;18.57;3.90;;;8.30;99.90;;;;;;5053379;28;20216;-76
2024/03/30 03:39:37;;;;;;;9.23;3.50;;;8.20;99.90;;;;;;5052778;28;20232;-76
2024/03/30 03:42:04;;;;;;;6.30;2.90;;;8.20;99.90;;;;;;5052320;28;20672;-76
2024/03/30 03:44:29;;;;;;;8.35;2.55;;;8.30;99.90;;;;;;5051246;28;20220;-76
2024/03/30 03:46:56;;;;;;;11.80;3.20;;;8.40;99.90;;;;;;5051650;28;20212;-76
2024/03/30 03:49:24;;;;;;;9.93;2.88;;;8.60;99.90;;;;;;5051581;28;20238;-76
2024/03/30 03:51:50;;;;;;;7.72;2.28;;;8.60;99.90;;;;;;5051923;28;20302;-76
2024/03/30 03:54:16;;;;;;;8.90;3.08;;;8.80;99.90;;;;;;5051199;28;20212;-76
2024/03/30 03:56:43;;;;;;;9.83;2.70;;;8.90;99.90;;;;;;5051367;28;20215;-76
2024/03/30 03:59:08;;;;;;;16.13;3.53;;;9.00;99.90;;;;;;5051724;28;20339;-76
2024/03/30 04:01:35;;;;;;;16.67;3.80;;;9.10;99.90;;;;;;5051816;28;20659;-76
2024/03/30 04:04:01;;;;;;;9.90;3.13;;;9.10;99.90;;;;;;5051707;28;20233;-77
2024/03/30 04:06:29;;;;;;;8.07;2.93;;;9.10;99.90;;;;;;5052096;28;20205;-76
2024/03/30 04:08:56;;;;;;;6.35;2.05;;;9.00;99.90;;;;;;5053769;28;20273;-76
2024/03/30 04:11:23;;;;;;;10.68;3.58;;;9.00;99.90;;;;;;5062263;28;20294;-76
2024/03/30 04:13:49;;;;;;;14.85;3.58;;;8.90;99.90;;;;;;5057308;28;20239;-76
2024/03/30 04:16:17;;;;;;;10.13;3.20;;;8.90;99.90;;;;;;5056670;28;20209;-76
2024/03/30 04:18:43;;;;;;;14.32;3.92;;;8.80;99.90;;;;;;5055859;28;20212;-76
2024/03/30 04:21:10;;;;;;;6.43;2.23;;;8.80;99.90;;;;;;5058181;28;20223;-75
2024/03/30 04:23:37;;;;;;;6.07;2.33;;;8.70;99.90;;;;;;5072309;28;20546;-76
2024/03/30 04:26:05;;;;;;;11.35;2.80;;;8.60;99.90;;;;;;5073220;28;20205;-76
2024/03/30 04:28:31;;;;;;;9.05;3.00;;;8.50;99.90;;;;;;5072671;28;20208;-76
2024/03/30 04:30:58;;;;;;;10.30;3.70;;;8.40;99.90;;;;;;5063400;28;20271;-76
2024/03/30 04:33:24;;;;;;;5.63;2.45;;;8.40;99.90;;;;;;5062648;28;20228;-76
2024/03/30 04:35:56;;;;;;;4.63;3.43;;;8.30;99.90;;;;;;5066449;28;20676;-76
2024/03/30 04:38:22;;;;;;;6.35;2.45;;;8.20;99.90;;;;;;5065097;28;20459;-76
2024/03/30 04:41:01;;;;;;;9.30;2.80;;;8.20;99.90;;;;;;5064148;28;20224;-76
2024/03/30 04:43:29;;;;;;;5.20;2.17;;;8.10;99.90;;;;;;5064414;28;20232;-76
2024/03/30 04:45:55;;;;;;;14.13;3.40;;;8.10;99.90;;;;;;5065394;28;20273;-76
2024/03/30 04:48:24;;;;;;;6.75;2.03;;;8.10;99.90;;;;;;5060020;28;20207;-76
2024/03/30 04:50:50;;;;;;;4.60;1.98;;;8.00;99.90;;;;;;5053227;28;20205;-76
2024/03/30 04:53:18;;;;;;;5.00;2.05;;;8.00;99.90;;;;;;5053242;28;20228;-76
2024/03/30 04:55:51;;;;;;;7.70;2.92;;;7.90;99.90;;;;;;5053363;28;20294;-76
2024/03/30 04:58:22;;;;;;;8.85;2.35;;;7.90;99.90;;;;;;5053345;28;20203;-76
2024/03/30 05:00:48;;;;;;;11.15;2.97;;;7.90;99.90;;;;;;5053000;28;20232;-76
2024/03/30 05:03:15;;;;;;;6.72;2.40;;;7.90;99.90;;;;;;5052733;28;20279;-76
2024/03/30 05:05:42;;;;;;;9.05;2.65;;;8.00;99.90;;;;;;5052924;28;20215;-76
2024/03/30 05:08:08;;;;;;;5.18;2.40;;;8.00;99.90;;;;;;5053152;28;20210;-77
2024/03/30 05:10:34;;;;;;;7.40;2.50;;;8.00;99.90;;;;;;5053802;28;20201;-76
2024/03/30 05:13:01;;;;;;;13.43;2.73;;;8.00;99.90;;;;;;5054259;28;20246;-76
2024/03/30 05:15:29;;;;;;;12.80;3.00;;;7.90;99.90;;;;;;5055422;28;20207;-76
2024/03/30 05:17:55;;;;;;;11.38;2.80;;;7.90;99.90;;;;;;5054719;28;20209;-76
2024/03/30 05:23:06;;;;;;;3.47;2.17;;;8.00;99.90;;;;;;5054051;28;20230;-76
2024/03/30 05:25:33;;;;;;;11.32;2.97;;;8.00;99.90;;;;;;5053454;28;20211;-76
2024/03/30 05:27:59;;;;;;;10.23;2.38;;;8.10;99.90;;;;;;5053175;28;20213;-76
2024/03/30 05:30:25;;;;;;;2.50;1.53;;;8.10;99.90;;;;;;5052611;28;20680;-76
2024/03/30 05:32:52;;;;;;;9.95;3.03;;;8.20;99.90;;;;;;5052049;28;20243;-76
2024/03/30 05:35:19;;;;;;;11.35;3.10;;;8.20;99.90;;;;;;5052541;28;20212;-76
2024/03/30 05:37:45;;;;;;;7.25;2.22;;;8.20;99.90;;;;;;5052739;28;20219;-76
2024/03/30 05:40:12;;;;;;;8.93;2.67;;;8.30;99.90;;;;;;5053304;28;20232;-76
2024/03/30 05:42:38;;;;;;;6.32;2.80;;;8.40;99.90;;;;;;5051683;28;20486;-75
2024/03/30 05:45:05;;;;;;;5.07;2.13;;;8.50;99.90;;;;;;5052471;28;20201;-76
2024/03/30 05:47:31;;;;;;;11.73;3.05;;;8.60;99.90;;;;;;5052309;28;20466;-76
2024/03/30 05:50:00;;;;;;;7.30;2.33;;;8.70;99.90;;;;;;5052023;28;20219;-76
2024/03/30 05:52:26;;;;;;;6.88;2.63;;;8.80;99.90;;;;;;5052033;28;20978;-76
2024/03/30 05:54:53;;;;;;;6.60;2.40;;;8.90;99.90;;;;;;5051572;28;20250;-76
2024/03/30 05:57:19;;;;;;;8.43;2.28;;;9.00;99.90;;;;;;5052102;28;20455;-76
2024/03/30 05:59:45;;;;;;;5.67;2.07;;;9.20;99.90;;;;;;5051973;28;20247;-76
2024/03/30 06:02:11;;;;;;;3.63;2.40;;;9.30;99.90;;;;;;5052130;28;20228;-76
2024/03/30 06:04:38;;;;;;;8.60;2.13;;;9.40;99.90;;;;;;5051794;28;20201;-76
2024/03/30 06:07:08;;;;;;;7.05;2.80;;;9.60;99.90;;;;;;5051844;28;20209;-76
2024/03/30 06:09:35;;;;;;;6.45;2.58;;;9.70;99.90;;;;;;5051984;28;20201;-76
2024/03/30 06:12:03;;;;;;;10.73;2.30;;;9.90;99.90;;;;;;5051445;28;20217;-76
2024/03/30 06:14:29;;;;;;;11.02;2.25;;;10.10;99.90;;;;;;5051744;28;20236;-76
2024/03/30 06:16:56;;;;;;;5.47;2.25;;;10.30;99.90;;;;;;5051676;28;20674;-76
2024/03/30 06:19:22;;;;;;;7.10;2.47;;;10.50;99.90;;;;;;5052282;28;20228;-76
2024/03/30 06:21:49;;;;;;;7.07;2.50;;;10.60;99.90;;;;;;5052310;28;20201;-76
2024/03/30 06:24:16;;;;;;;6.97;2.40;;;10.80;99.90;;;;;;5053471;28;20470;-77
2024/03/30 06:26:42;;;;;;;9.85;2.38;;;11.00;99.90;;;;;;5053737;28;20209;-76
2024/03/30 06:29:09;;;;;;;7.28;2.75;;;11.10;99.90;;;;;;5051592;28;20209;-76
2024/03/30 06:31:36;;;;;;;5.75;2.78;;;11.20;99.90;;;;;;5051628;28;20228;-76
2024/03/30 06:34:03;;;;;;;3.70;2.33;;;11.20;99.90;;;;;;5051137;28;21004;-76
2024/03/30 06:36:30;;;;;;;7.03;2.35;;;11.30;99.90;;;;;;5051135;28;20201;-76
2024/03/30 06:38:56;;;;;;;9.77;2.90;;;11.40;99.90;;;;;;5051450;28;20601;-76
2024/03/30 06:44:08;;;;;;;5.22;1.85;;;11.60;99.90;;;;;;5051072;28;20237;-76
2024/03/30 06:46:35;;;;;;;6.87;2.83;;;11.60;99.90;;;;;;5051283;28;20212;-76
2024/03/30 06:49:02;;;;;;;7.67;2.27;;;11.60;99.90;;;;;;5050895;28;20471;-76
2024/03/30 06:51:29;;;;;;;4.40;2.40;;;11.70;99.90;;;;;;5051095;28;20536;-76
2024/03/30 06:53:55;;;;;;;12.13;2.60;;;11.70;99.90;;;;;;5050673;28;20255;-76
2024/03/30 06:56:23;;;;;;;5.10;1.77;;;11.70;99.90;;;;;;5051095;28;20456;-76
2024/03/30 06:58:49;;;;;;;9.63;2.97;;;11.80;99.90;;;;;;5050873;28;20505;-76
2024/03/30 07:01:16;;;;;;;7.17;2.40;;;11.80;99.90;;;;;;5050765;28;21059;-75
2024/03/30 07:03:42;;;;;;;8.20;3.20;;;11.90;99.90;;;;;;5050107;28;20451;-75
2024/03/30 07:06:09;;;;;;;7.37;2.63;;;12.00;99.90;;;;;;5051543;28;20208;-74
2024/03/30 07:08:36;;;;;;;15.37;3.60;;;12.10;99.90;;;;;;5051116;28;20205;-76
2024/03/30 07:11:02;;;;;;;8.27;2.20;;;12.20;99.90;;;;;;5050826;28;20511;-74
2024/03/30 07:13:30;;;;;;;5.47;1.93;;;12.20;99.90;;;;;;5050678;28;20486;-75
2024/03/30 07:15:56;;;;;;;9.80;2.90;;;12.30;99.90;;;;;;5042864;28;20469;-75
2024/03/30 07:18:23;;;;;;;9.43;2.80;;;12.30;99.90;;;;;;5031082;28;20463;-75
2024/03/30 07:20:49;;;;;;;11.20;2.60;;;12.30;99.90;;;;;;5030475;28;21020;-74
2024/03/30 07:23:15;;;;;;;8.40;2.13;;;12.40;99.90;;;;;;5050521;28;20479;-74
2024/03/30 07:25:42;;;;;;;8.77;2.10;;;12.40;99.90;;;;;;5050992;28;20467;-75
2024/03/30 07:28:08;;;;;;;4.17;2.00;;;12.40;99.90;;;;;;5047569;28;20215;-74
2024/03/30 07:30:38;;;;;;;12.20;2.83;;;12.40;99.90;;;;;;5047119;28;20467;-75
2024/03/30 07:33:05;;;;;;;6.47;2.20;;;12.40;99.90;;;;;;5047084;28;20232;-75
2024/03/30 07:35:32;;;;;;;7.80;2.33;;;12.40;99.90;;;;;;5047436;28;20544;-74
2024/03/30 07:37:58;;;;;;;3.33;2.20;;;12.40;99.90;;;;;;5047839;28;20466;-75
2024/03/30 07:40:24;;;;;;;11.57;2.90;;;12.40;99.90;;;;;;5046920;28;20492;-74
2024/03/30 07:42:50;;;;;;;15.63;3.00;;;12.30;99.90;;;;;;5047245;28;20502;-74
2024/03/30 07:45:17;;;;;;;15.67;3.00;;;12.30;99.90;;;;;;5042403;28;20961;-74
2024/03/30 07:47:44;;;;;;;5.80;1.90;;;12.20;99.90;;;;;;5028760;28;20216;-74
2024/03/30 07:50:11;;;;;;;11.73;2.60;;;12.20;99.90;;;;;;5031206;28;20468;-74
2024/03/30 07:52:38;;;;;;;11.63;2.43;;;12.20;99.90;;;;;;5030925;28;20480;-74
2024/03/30 07:55:05;;;;;;;8.60;3.13;;;12.40;99.90;;;;;;5030714;28;20503;-74
2024/03/30 07:57:32;;;;;;;6.43;2.63;;;12.60;99.90;;;;;;5030370;28;20460;-73
2024/03/30 07:59:58;;;;;;;9.33;2.93;;;13.00;99.90;;;;;;5031939;28;21013;-75
2024/03/30 08:02:24;;;;;;;3.70;2.53;;;13.20;99.90;;;;;;5030884;28;20864;-75
2024/03/30 08:04:52;;;;;;;20.03;3.77;;;13.50;98.80;;;;;;5030458;28;20464;-75
2024/03/30 08:07:18;;;;;;;10.83;3.70;;;13.60;99.20;;;;;;5032736;28;20213;-75
2024/03/30 08:09:45;;;;;;;11.97;3.37;;;13.80;98.80;;;;;;5033431;28;20483;-74
2024/03/30 08:12:10;;;;;;;8.47;3.03;;;13.90;97.90;;;;;;5033654;28;20253;-74
2024/03/30 08:14:37;;;;;;;11.50;3.17;;;14.10;97.70;;;;;;5033262;28;20464;-74
2024/03/30 08:17:03;;;;;;;12.20;2.60;;;14.20;98.20;;;;;;5034038;28;20216;-75
2024/03/30 08:19:29;;;;;;;10.97;2.53;;;14.20;97.80;;;;;;5033505;28;20555;-75
2024/03/30 08:21:57;;;;;;;9.43;3.40;;;14.30;98.00;;;;;;5033656;28;20491;-74
2024/03/30 08:24:23;;;;;;;13.87;3.50;;;14.30;97.90;;;;;;5033635;28;20511;-74
2024/03/30 08:26:49;;;;;;;10.93;3.20;;;14.30;97.80;;;;;;5033928;28;20475;-75
2024/03/30 08:29:16;;;;;;;11.20;3.50;;;14.30;97.30;;;;;;5033602;28;20970;-74
2024/03/30 08:31:41;;;;;;;25.57;3.60;;;14.30;97.30;;;;;;5033457;28;20202;-75
2024/03/30 08:34:08;;;;;;;17.70;3.20;;;14.40;96.60;;;;;;5033252;28;21005;-74
2024/03/30 08:36:35;;;;;;;9.50;2.70;;;14.40;95.30;;;;;;5033505;28;20536;-75
2024/03/30 08:39:02;;;;;;;9.40;2.73;;;14.60;94.80;;;;;;5033361;28;20467;-75
2024/03/30 08:41:29;;;;;;;8.73;3.60;;;14.70;95.30;;;;;;5033000;28;20488;-76
2024/03/30 08:43:54;;;;;;;14.17;2.60;;;14.80;95.50;;;;;;5032991;28;20487;-75
2024/03/30 08:46:21;;;;;;;14.47;3.10;;;14.80;95.80;;;;;;5033669;28;20464;-75
2024/03/30 08:48:47;;;;;;;9.37;3.70;;;14.80;95.30;;;;;;5033237;28;20206;-75
2024/03/30 08:51:15;;;;;;;10.70;3.20;;;14.80;96.10;;;;;;5032713;28;20463;-75
2024/03/30 08:53:44;;;;;;;7.00;2.57;;;14.80;96.00;;;;;;5032807;28;20253;-75
2024/03/30 08:56:12;;;;;;;12.93;3.63;;;14.80;96.20;;;;;;5033337;28;20475;-75
2024/03/30 08:58:37;;;;;;;10.23;3.13;;;14.70;97.80;;;;;;5032684;28;20465;-75
2024/03/30 09:01:04;;;;;;;5.17;3.50;;;14.70;98.90;;;;;;5032856;28;20499;-75
2024/03/30 09:03:30;;;;;;;12.73;3.37;;;14.60;99.70;;;;;;5043042;28;20244;-75
2024/03/30 09:05:57;;;;;;;8.13;3.00;;;14.50;99.90;;;;;;5052911;28;20961;-74
2024/03/30 09:08:22;;;;;;;7.53;2.80;;;14.40;99.90;;;;;;5052815;28;20205;-75
2024/03/30 09:10:49;;;;;;;10.03;3.43;;;14.30;99.90;;;;;;5052849;28;20459;-75
2024/03/30 09:13:16;;;;;;;8.57;2.80;;;14.20;99.90;;;;;;5052516;28;20236;-75
2024/03/30 09:15:43;;;;;;;13.53;2.83;;;14.10;99.90;;;;;;5052861;28;20834;-75
2024/03/30 09:18:10;;;;;;;9.00;2.63;;;14.10;99.90;;;;;;5052755;28;20459;-75
2024/03/30 09:20:36;;;;;;;8.73;2.37;;;14.00;99.90;;;;;;5051549;28;20515;-75
2024/03/30 09:23:02;;;;;;;7.93;2.87;;;13.90;99.90;;;;;;5050897;28;20487;-75
2024/03/30 09:25:29;;;;;;;8.60;2.70;;;13.90;99.90;;;;;;5051485;28;20964;-75
2024/03/30 09:27:55;;;;;;;13.83;3.17;;;13.80;99.90;;;;;;5052286;28;20551;-75
2024/03/30 09:30:23;;;;;;;10.17;3.17;;;13.80;99.90;;;;;;5052102;28;20547;-75
2024/03/30 09:32:49;;;;;;;11.70;3.50;;;13.80;99.90;;;;;;5051828;28;20741;-75
2024/03/30 09:35:16;;;;;;;11.07;3.50;;;13.80;99.90;;;;;;5052393;28;20467;-75
2024/03/30 09:37:42;;;;;;;15.07;3.10;;;13.80;99.90;;;;;;5052370;28;20961;-75
2024/03/30 09:40:11;;;;;;;15.17;3.77;;;13.80;99.90;;;;;;5052274;28;20486;-74
2024/03/30 09:42:37;;;;;;;10.90;2.53;;;13.70;99.90;;;;;;5052139;28;20268;-74
2024/03/30 09:45:05;;;;;;;12.53;3.17;;;13.70;99.90;;;;;;5052044;28;20897;-74
2024/03/30 09:47:33;;;;;;;5.37;2.40;;;13.60;99.90;;;;;;5051990;28;20486;-75
2024/03/30 09:50:02;;;;;;;6.60;2.50;;;13.60;99.90;;;;;;5052012;28;20464;-75
2024/03/30 09:52:29;;;;;;;9.17;2.73;;;13.60;99.90;;;;;;5051911;28;20797;-75
2024/03/30 09:54:57;;;;;;;9.70;3.40;;;13.60;99.90;;;;;;5051680;28;20475;-77
2024/03/30 09:57:24;;;;;;;12.57;3.10;;;13.50;99.90;;;;;;5051778;28;20466;-75
2024/03/30 09:59:52;;;;;;;11.53;2.90;;;13.50;99.90;;;;;;5051972;28;20968;-75
2024/03/30 10:02:18;;;;;;;4.70;2.60;;;13.50;99.90;;;;;;5051571;28;20482;-75
2024/03/30 10:04:46;;;;;;;13.83;3.80;;;13.50;99.90;;;;;;5051674;28;20473;-75
2024/03/30 10:07:14;;;;;;;6.20;2.43;;;13.50;99.90;;;;;;5051676;28;20470;-75
2024/03/30 10:09:41;;;;;;;13.77;3.70;;;13.40;99.90;;;;;;5050985;28;20456;-76
2024/03/30 10:12:15;;;;;;;10.93;3.63;;;13.40;99.90;;;;;;5051228;28;20486;-75
2024/03/30 10:14:44;;;;;;;6.30;2.40;;;13.40;99.90;;;;;;5051450;28;20460;-75
2024/03/30 10:17:11;;;;;;;6.37;2.83;;;13.50;99.90;;;;;;5051636;28;20451;-75
2024/03/30 10:19:39;;;;;;;7.53;3.10;;;13.50;99.90;;;;;;5051342;28;20474;-75
2024/03/30 10:22:07;;;;;;;9.90;2.50;;;13.50;99.90;;;;;;5051076;28;20621;-75
2024/03/30 10:24:34;;;;;;;10.10;3.37;;;13.60;99.90;;;;;;5051035;28;20467;-76
2024/03/30 10:27:00;;;;;;;10.83;3.47;;;13.60;99.90;;;;;;5051283;28;20467;-75
2024/03/30 10:29:26;;;;;;;11.00;2.73;;;13.70;99.90;;;;;;5051290;28;20563;-75
2024/03/30 10:31:52;;;;;;;14.73;3.70;;;13.70;99.90;;;;;;5051041;28;20867;-75
2024/03/30 10:34:19;;;;;;;16.13;3.90;;;13.70;99.90;;;;;;5050929;28;20463;-76
2024/03/30 10:36:46;;;;;;;7.57;2.80;;;13.80;99.90;;;;;;5051184;28;20216;-75
2024/03/30 10:39:15;;;;;;;5.80;2.37;;;13.80;99.90;;;;;;5051167;28;20528;-75
2024/03/30 10:41:41;;;;;;;7.07;3.00;;;13.80;99.90;;;;;;5050881;28;20521;-76
2024/03/30 10:44:08;;;;;;;8.70;2.40;;;13.80;99.90;;;;;;5050813;28;20493;-76
2024/03/30 10:46:34;;;;;;;15.17;4.93;;;13.90;99.90;;;;;;5051036;28;20463;-76
2024/03/30 10:49:00;;;;;;;9.63;2.80;;;13.90;99.90;;;;;;5041392;28;20464;-75
2024/03/30 10:51:27;;;;;;;4.33;2.27;;;13.90;99.90;;;;;;5029765;28;20576;-75
2024/03/30 10:54:04;;;;;;;8.37;3.20;;;14.00;99.90;;;;;;5030606;28;21085;-75
2024/03/30 10:56:31;;;;;;;7.70;2.20;;;14.00;99.90;;;;;;5026209;28;20499;-76
2024/03/30 10:59:01;;;;;;;7.90;3.17;;;14.00;99.90;;;;;;5027458;28;20899;-75
2024/03/30 11:01:29;;;;;;;9.60;2.80;;;14.10;99.90;;;;;;5027590;28;20550;-75
2024/03/30 11:03:57;;;;;;;8.57;3.57;;;14.10;99.90;;;;;;5027078;28;20492;-76
2024/03/30 11:06:23;;;;;;;9.43;3.00;;;14.10;99.90;;;;;;5020916;28;20475;-75
2024/03/30 11:08:51;;;;;;;12.40;3.30;;;14.20;99.90;;;;;;5027345;28;20498;-75
2024/03/30 11:11:18;;;;;;;9.17;3.13;;;14.20;99.90;;;;;;5027399;28;20457;-76
2024/03/30 11:13:46;;;;;;;6.17;2.43;;;14.20;99.90;;;;;;5027314;28;20534;-76
2024/03/30 11:16:13;;;;;;;10.50;3.13;;;14.20;99.90;;;;;;5022568;28;20472;-75
2024/03/30 11:18:48;;;;;;;8.87;2.50;;;14.30;99.90;;;;;;5047492;28;20873;-75
2024/03/30 11:21:20;;;;;;;9.07;2.67;;;14.40;99.90;;;;;;5047778;28;20983;-76
2024/03/30 11:23:56;;;;;;;13.00;3.40;;;14.40;99.90;;;;;;5050969;28;20545;-75
2024/03/30 11:26:23;;;;;;;15.30;4.10;;;14.50;99.90;;;;;;5051459;28;20802;-76
2024/03/30 11:29:00;;;;;;;5.90;2.97;;;14.60;99.90;;;;;;5051270;28;20470;-75
2024/03/30 11:31:31;;;;;;;17.23;4.03;;;14.60;99.90;;;;;;5051501;28;20511;-75
2024/03/30 11:34:07;;;;;;;7.00;2.93;;;14.70;99.90;;;;;;5050603;28;21000;-76
2024/03/30 11:36:40;;;;;;;12.00;3.37;;;14.80;99.90;;;;;;5051141;28;20467;-75
2024/03/30 11:39:15;;;;;;;9.77;3.27;;;14.90;99.90;;;;;;5051131;28;20471;-76
2024/03/30 11:41:44;;;;;;;7.27;2.70;;;14.90;99.90;;;;;;5050644;28;20487;-76
2024/03/30 11:44:16;;;;;;;7.00;2.80;;;15.00;99.90;;;;;;5050900;28;21105;-75
2024/03/30 11:46:42;;;;;;;7.93;2.90;;;15.10;99.90;;;;;;5050954;28;20586;-75
2024/03/30 11:49:10;;;;;;;10.17;2.90;;;15.20;99.90;;;;;;5050948;28;20486;-75
2024/03/30 11:51:39;;;;;;;9.93;3.20;;;15.30;99.90;;;;;;5051074;28;20477;-75
2024/03/30 11:54:19;;;;;;;8.70;3.60;;;15.40;99.90;;;;;;5050482;28;21097;-74
2024/03/30 11:56:54;;;;;;;15.07;2.73;;;15.60;99.90;;;;;;5050754;28;20464;-75
2024/03/30 11:59:22;;;;;;;13.20;4.10;;;15.70;99.30;;;;;;5050730;28;20467;-76
2024/03/30 12:01:48;;;;;;;6.87;2.53;;;15.90;98.50;;;;;;5050341;28;20840;-75
2024/03/30 12:04:14;;;;;;;8.27;3.10;;;16.00;98.20;;;;;;5050260;28;20470;-74
2024/03/30 12:06:40;;;;;;;12.70;2.83;;;16.20;99.90;;;;;;5050813;28;20233;-75
2024/03/30 12:09:08;;;;;;;9.07;2.73;;;16.20;99.90;;;;;;5050578;28;20889;-75
2024/03/30 12:11:34;;;;;;;5.23;2.60;;;16.30;99.90;;;;;;5050386;28;20840;-75
2024/03/30 12:14:00;;;;;;;14.60;4.80;;;16.40;99.90;;;;;;5049827;28;20494;-75
2024/03/30 12:16:27;;;;;;;10.60;2.80;;;16.40;99.90;;;;;;5050588;28;20197;-75
2024/03/30 12:18:54;;;;;;;5.70;2.57;;;16.50;99.90;;;;;;5050007;28;20471;-75
2024/03/30 12:21:21;;;;;;;6.33;2.90;;;16.50;99.90;;;;;;5050256;28;21008;-75
2024/03/30 12:23:48;;;;;;;10.73;3.03;;;16.50;99.90;;;;;;5049954;28;20480;-75
2024/03/30 12:26:14;;;;;;;8.63;3.30;;;16.40;99.90;;;;;;5052230;28;20482;-75
2024/03/30 12:28:41;;;;;;;12.03;3.10;;;16.50;99.90;;;;;;5051830;28;20460;-75
2024/03/30 12:31:07;;;;;;;13.57;3.63;;;16.40;99.90;;;;;;5052861;28;20475;-75
2024/03/30 12:33:36;;;;;;;10.43;2.93;;;16.50;99.90;;;;;;5052595;28;20527;-75
2024/03/30 12:36:02;;;;;;;11.97;3.67;;;16.50;99.90;;;;;;5053345;28;20809;-75
2024/03/30 12:38:31;;;;;;;9.77;3.93;;;16.50;99.90;;;;;;5053533;28;20647;-75
2024/03/30 12:40:57;;;;;;;10.10;3.30;;;16.50;99.90;;;;;;5053057;28;20491;-74
2024/03/30 12:43:23;;;;;;;10.80;3.00;;;16.60;99.90;;;;;;5053198;28;20851;-74
2024/03/30 12:45:49;;;;;;;10.97;3.70;;;16.70;99.90;;;;;;5053487;28;20201;-74
2024/03/30 12:48:16;;;;;;;10.70;3.60;;;16.70;99.90;;;;;;5053331;28;20936;-75
2024/03/30 12:50:43;;;;;;;7.47;3.10;;;16.80;99.90;;;;;;5053040;28;20197;-75
2024/03/30 12:53:10;;;;;;;10.87;2.80;;;16.90;99.90;;;;;;5052760;28;20632;-75